Mina, Nevada
Current Conditions -  °F | °C
As of 12:56 PM on Friday 19 Dec 2014 (Local Time) from KTPH Reporting Station
Broken Clouds Broken Clouds  
Wind Chill: 34°   Ceiling: 11000
Heat Index: 40°   Visibility: 10mi
Dew Point: 30°   Wind: 9mph
Humidity: 68%   Direction: 190°S
Pressure: 30.15"   Gusts: NA
Location:  38.39°N, 118.11°W
Report Text: KTPH 192056Z AUTO 19008KT 10SM FEW021 BKN110 04/M01 A3015 RMK AO2 SLP219 T00441011 56018
Loading
Personal Weather Stations






























Interactive Weather Map New forecast layout! Learn more

10-Day Weather Forecast

Advertisements
Track Severe Weather on mobile